Time,TemperatureF,DewpointF,PressureIn,WindDirection,WindDirectionDegrees,WindSpeedMPH,WindSpeedGustMPH,Humidity,HourlyPrecipIn,Conditions,Clouds,dailyrainin,SoftwareType,DateUTC
2013-04-08 09:43:00,37.0,32.0,29.66,East,81,6.0,11.0,82,0.00,,,0.00,,2013-04-08 14:43:00,
2013-04-08 09:52:00,37.0,32.0,29.66,East,81,6.0,11.0,82,0.00,,,0.00,,2013-04-08 14:52:00,
2013-04-08 10:02:00,37.0,32.0,29.66,ENE,76,6.0,12.0,81,0.00,,,0.00,,2013-04-08 15:02:00,
2013-04-08 10:12:00,37.0,32.0,29.66,ENE,76,6.0,12.0,81,0.00,,,0.00,,2013-04-08 15:12:00,
2013-04-08 10:22:00,37.0,32.0,29.66,ENE,76,6.0,12.0,81,0.00,,,0.00,,2013-04-08 15:22:00,
2013-04-08 10:33:00,37.0,32.0,29.68,East,87,3.0,7.0,82,0.00,,,0.00,,2013-04-08 15:33:00,
2013-04-08 10:43:00,37.0,32.0,29.68,East,87,3.0,7.0,82,0.00,,,0.00,,2013-04-08 15:43:00,
2013-04-08 10:53:00,37.0,32.0,29.68,ENE,64,6.0,12.0,83,0.00,,,0.00,,2013-04-08 15:53:00,
2013-04-08 11:03:00,36.0,32.0,29.67,ENE,75,4.0,12.0,85,0.00,,,0.00,,2013-04-08 16:03:00,
2013-04-08 11:13:00,36.0,32.0,29.67,East,81,6.0,14.0,86,0.00,,,0.00,,2013-04-08 16:13:00,
2013-04-08 11:22:00,36.0,32.0,29.67,East,81,6.0,14.0,86,0.00,,,0.00,,2013-04-08 16:22:00,
2013-04-08 11:32:00,36.0,32.0,29.67,East,81,6.0,14.0,86,0.00,,,0.00,,2013-04-08 16:32:00,
2013-04-08 11:42:00,36.0,32.0,29.67,ENE,75,6.0,13.0,86,0.00,,,0.00,,2013-04-08 16:42:00,
2013-04-08 11:52:00,36.0,33.0,29.66,East,79,6.0,12.0,88,0.00,,,0.00,,2013-04-08 16:52:00,
2013-04-08 12:03:00,36.0,33.0,29.65,ENE,71,6.0,13.0,89,0.00,,,0.00,,2013-04-08 17:03:00,
2013-04-08 12:12:00,36.0,33.0,29.65,ENE,69,7.0,13.0,89,0.00,,,0.00,,2013-04-08 17:12:00,
2013-04-08 12:22:00,36.0,33.0,29.65,ENE,69,7.0,13.0,89,0.00,,,0.00,,2013-04-08 17:22:00,
2013-04-08 12:32:00,36.0,33.0,29.65,ENE,69,7.0,14.0,89,0.00,,,0.00,,2013-04-08 17:32:00,
2013-04-08 12:43:00,36.0,33.0,29.65,ENE,69,7.0,14.0,89,0.00,,,0.00,,2013-04-08 17:43:00,
2013-04-08 12:52:00,36.0,33.0,29.65,ENE,71,7.0,14.0,90,0.00,,,0.00,,2013-04-08 17:52:00,
2013-04-08 13:02:00,36.0,33.0,29.65,ENE,68,8.0,16.0,90,0.00,,,0.00,,2013-04-08 18:02:00,
2013-04-08 13:12:00,36.0,34.0,29.64,ENE,70,8.0,16.0,91,0.00,,,0.00,,2013-04-08 18:12:00,
2013-04-08 13:22:00,36.0,34.0,29.64,ENE,70,8.0,16.0,91,0.00,,,0.00,,2013-04-08 18:22:00,
2013-04-08 13:32:00,37.0,35.0,29.64,ENE,74,6.0,14.0,91,0.00,,,0.00,,2013-04-08 18:32:00,
2013-04-08 13:42:00,37.0,35.0,29.64,ENE,72,7.0,13.0,91,0.00,,,0.00,,2013-04-08 18:42:00,
2013-04-08 13:52:00,37.0,35.0,29.64,ENE,72,7.0,13.0,91,0.00,,,0.00,,2013-04-08 18:52:00,
2013-04-08 14:02:00,37.0,35.0,29.65,ENE,75,7.0,13.0,91,0.00,,,0.00,,2013-04-08 19:02:00,
2013-04-08 14:12:00,38.0,36.0,29.65,ENE,67,7.0,17.0,91,0.00,,,0.00,,2013-04-08 19:12:00,
2013-04-08 14:22:00,38.0,36.0,29.65,ENE,67,7.0,17.0,91,0.00,,,0.00,,2013-04-08 19:22:00,
2013-04-08 14:33:00,38.0,36.0,29.65,ENE,67,7.0,17.0,91,0.00,,,0.00,,2013-04-08 19:33:00,
2013-04-08 14:42:00,38.0,36.0,29.65,ENE,68,7.0,16.0,91,0.00,,,0.00,,2013-04-08 19:42:00,
2013-04-08 14:52:00,38.0,36.0,29.65,ENE,68,7.0,16.0,91,0.00,,,0.00,,2013-04-08 19:52:00,
2013-04-08 15:02:00,38.0,36.0,29.65,ENE,68,7.0,16.0,91,0.00,,,0.00,,2013-04-08 20:02:00,
2013-04-08 15:12:00,38.0,36.0,29.66,ENE,70,7.0,12.0,91,0.00,,,0.00,,2013-04-08 20:12:00,
2013-04-08 15:22:00,38.0,36.0,29.66,ENE,70,7.0,12.0,91,0.00,,,0.00,,2013-04-08 20:22:00,
2013-04-08 15:33:00,38.0,36.0,29.66,ENE,67,6.0,12.0,91,0.00,,,0.00,,2013-04-08 20:33:00,
2013-04-08 15:43:00,38.0,36.0,29.66,ENE,67,6.0,12.0,91,0.00,,,0.00,,2013-04-08 20:43:00,
2013-04-08 15:52:00,38.0,36.0,29.67,NE,45,5.0,11.0,91,0.00,,,0.00,,2013-04-08 20:52:00,
2013-04-08 16:02:00,38.0,36.0,29.67,NE,54,6.0,12.0,91,0.00,,,0.00,,2013-04-08 21:02:00,
2013-04-08 16:12:00,38.0,36.0,29.66,ENE,70,6.0,11.0,91,0.00,,,0.00,,2013-04-08 21:12:00,
2013-04-08 16:22:00,38.0,36.0,29.66,ENE,70,6.0,11.0,91,0.00,,,0.00,,2013-04-08 21:22:00,
2013-04-08 16:32:00,38.0,36.0,29.67,ENE,69,5.0,12.0,91,0.00,,,0.00,,2013-04-08 21:32:00,
2013-04-08 16:43:00,38.0,36.0,29.67,ENE,69,5.0,12.0,91,0.00,,,0.00,,2013-04-08 21:43:00,
2013-04-08 16:53:00,38.0,36.0,29.67,ENE,69,5.0,12.0,91,0.00,,,0.00,,2013-04-08 21:53:00,
2013-04-08 17:03:00,39.0,37.0,29.67,ENE,64,6.0,11.0,91,0.00,,,0.00,,2013-04-08 22:03:00,
2013-04-08 17:13:00,39.0,37.0,29.67,ENE,64,6.0,11.0,91,0.00,,,0.00,,2013-04-08 22:13:00,
2013-04-08 17:23:00,38.0,35.0,29.68,ENE,72,6.0,11.0,90,0.00,,,0.00,,2013-04-08 22:23:00,
2013-04-08 17:32:00,38.0,35.0,29.68,ENE,72,6.0,11.0,90,0.00,,,0.00,,2013-04-08 22:32:00,
2013-04-08 17:43:00,38.0,35.0,29.69,ENE,78,3.0,7.0,90,0.00,,,0.00,,2013-04-08 22:43:00,
2013-04-08 17:52:00,38.0,35.0,29.71,ENE,78,5.0,10.0,90,0.00,,,0.00,,2013-04-08 22:52:00,
2013-04-08 18:02:00,38.0,35.0,29.72,ENE,60,3.0,7.0,90,0.00,,,0.00,,2013-04-08 23:02:00,
2013-04-08 18:12:00,38.0,35.0,29.72,ENE,60,3.0,7.0,90,0.00,,,0.00,,2013-04-08 23:12:00,
2013-04-08 18:22:00,38.0,35.0,29.72,ENE,60,3.0,7.0,90,0.00,,,0.00,,2013-04-08 23:22:00,
2013-04-08 18:32:00,38.0,35.0,29.74,NE,38,3.0,6.0,90,0.00,,,0.00,,2013-04-08 23:32:00,
2013-04-08 18:42:00,38.0,35.0,29.74,NE,38,3.0,6.0,90,0.00,,,0.00,,2013-04-08 23:42:00,
2013-04-08 18:52:00,35.0,32.0,29.76,NNW,338,4.0,8.0,90,0.00,,,0.00,,2013-04-08 23:52:00,
2013-04-08 19:02:00,35.0,32.0,29.76,NNW,338,4.0,8.0,90,0.00,,,0.00,,2013-04-09 00:02:00,
2013-04-08 19:12:00,35.0,32.0,29.76,NNW,338,4.0,8.0,90,0.00,,,0.00,,2013-04-09 00:12:00,
2013-04-08 19:22:00,35.0,33.0,29.76,NNW,346,2.0,3.0,92,0.00,,,0.00,,2013-04-09 00:22:00,
2013-04-08 19:32:00,35.0,33.0,29.76,NNW,346,2.0,3.0,92,0.00,,,0.00,,2013-04-09 00:32:00,
2013-04-08 19:42:00,35.0,33.0,29.76,NNW,346,2.0,3.0,92,0.00,,,0.00,,2013-04-09 00:42:00,
2013-04-08 19:52:00,35.0,33.0,29.76,NNW,346,2.0,3.0,92,0.00,,,0.00,,2013-04-09 00:52:00,
2013-04-08 20:02:00,35.0,34.0,29.79,NNW,330,3.0,5.0,95,0.00,,,0.00,,2013-04-09 01:02:00,
2013-04-08 20:12:00,35.0,34.0,29.79,NNW,330,3.0,5.0,95,0.00,,,0.00,,2013-04-09 01:12:00,
2013-04-08 20:22:00,35.0,34.0,29.79,NNW,330,3.0,5.0,95,0.00,,,0.00,,2013-04-09 01:22:00,
2013-04-08 20:33:00,35.0,34.0,29.79,NNW,330,3.0,5.0,95,0.00,,,0.00,,2013-04-09 01:33:00,
2013-04-08 20:42:00,35.0,35.0,29.82,NNW,346,4.0,7.0,100,0.00,,,0.00,,2013-04-09 01:42:00,
2013-04-08 20:52:00,35.0,35.0,29.82,NNW,346,4.0,7.0,100,0.00,,,0.00,,2013-04-09 01:52:00,
2013-04-08 21:02:00,35.0,35.0,29.82,NNW,346,4.0,7.0,100,0.00,,,0.00,,2013-04-09 02:02:00,
2013-04-08 21:13:00,35.0,35.0,29.82,NNW,346,4.0,7.0,100,0.00,,,0.00,,2013-04-09 02:13:00,